LIVE Streaming HD
Get Adobe Flash player
Annunci di Google
Satellite
Annunci di Google
Fasi Lunari
Satellite 2
satellite e T nubi
Previsione
Dati meteo stazione (refresh automatico ogni minuto)
Latina(LT) VENTO: VELOCITÀ   PIOGGIA: QTA GIORNO TEMPERATURA: ATTUALE
SPOT: Latina lido
(Hotel Tirreno) Posizione su Googlemap: Latitudine 41.41 Longitudine 12.84
RAFFICA MASSIMA: QTA MENSILE: MASSIMA:
VELOCITÀ MEDIA: QTA ANNUALE: MINIMA:
DIREZIONE: UMIDITÀ: WIND CHILL:
TIPO: DEW POINT:
BEAUFORT: PRESSIONE:
I nostri partner
Latina(LT) nelle ultime ore
Applica filtri in visualizzazione Intervallo delle letture nelle ultime

Ora Direzione Vento Velocita' Vento Media Vento Raffica Max. Temperatura Wind Chill Pioggia Pressione
22:06:45296 °(WNW)0.3 Kts0.3 Kts13.4 Kts18.2 °C17.4 °C0 mm1015.5 Hpa
22:01:31296 °(WNW)1.2 Kts0.3 Kts13.4 Kts18.3 °C17.5 °C0 mm1015.5 Hpa
21:56:18296 °(WNW)0.3 Kts0.3 Kts13.4 Kts18.4 °C17.6 °C0 mm1015.2 Hpa
21:52:01296 °(WNW)1.2 Kts0.3 Kts13.4 Kts18.5 °C17.7 °C0 mm1015.3 Hpa
21:46:44296 °(WNW)1.2 Kts1.2 Kts13.4 Kts18.6 °C17.2 °C0 mm1015.2 Hpa
21:41:36296 °(WNW)0.3 Kts1.2 Kts13.4 Kts18.7 °C17.4 °C0 mm1015.2 Hpa
21:36:17296 °(WNW)1.2 Kts0.3 Kts13.4 Kts18.7 °C17.9 °C0 mm1015.2 Hpa
21:32:06296 °(WNW)0.3 Kts0.3 Kts13.4 Kts18.7 °C17.9 °C0 mm1015.2 Hpa
21:26:52296 °(WNW)0.3 Kts0.3 Kts13.4 Kts18.8 °C18 °C0 mm1015 Hpa
21:21:39296 °(WNW)0 Kts0 Kts13.4 Kts18.7 °C18.7 °C0 mm1015.1 Hpa
21:16:22296 °(WNW)0.3 Kts0 Kts13.4 Kts18.9 °C18.9 °C0 mm1015 Hpa
21:12:12296 °(WNW)0.3 Kts0.3 Kts13.4 Kts19 °C18.2 °C0 mm1014.9 Hpa
21:06:58296 °(WNW)0.3 Kts1.2 Kts13.4 Kts19.1 °C17.8 °C0 mm1014.9 Hpa
21:01:42296 °(WNW)1.2 Kts2.1 Kts13.4 Kts19.1 °C17.3 °C0 mm1014.9 Hpa
20:56:27296 °(WNW)2.1 Kts1.2 Kts13.4 Kts19.1 °C17.7 °C0 mm1014.9 Hpa
20:51:15296 °(WNW)1.2 Kts1.2 Kts13.4 Kts19.1 °C17.8 °C0 mm1014.7 Hpa
20:47:05296 °(WNW)1.2 Kts0.3 Kts13.4 Kts19 °C18.2 °C0 mm1014.7 Hpa
20:39:53296 °(WNW)0 Kts1.2 Kts13.4 Kts19.1 °C17.7 °C0 mm1014.8 Hpa
20:36:42296 °(WNW)0.3 Kts2.1 Kts13.4 Kts19.2 °C17.4 °C0 mm1014.7 Hpa
20:31:30296 °(WNW)3 Kts4.7 Kts13.4 Kts19.2 °C15.9 °C0 mm1014.7 Hpa
20:26:17288 °(WNW)4.7 Kts4.7 Kts13.4 Kts19.3 °C16 °C0 mm1014.9 Hpa
20:22:06288 °(WNW)4.7 Kts5.6 Kts13.4 Kts19.3 °C15.7 °C0 mm1014.9 Hpa
20:16:53290 °(WNW)5.6 Kts5.6 Kts13.4 Kts19.3 °C15.7 °C0 mm1014.9 Hpa
20:11:40287 °(WNW)5.6 Kts5.6 Kts13.4 Kts19.2 °C15.8 °C0 mm1014.7 Hpa